createdAt,value
2024-05-09T00:02:23.043Z,52.32
2024-05-09T00:04:53.395Z,52.13
2024-05-09T00:07:23.529Z,51.90
2024-05-09T00:09:53.589Z,51.82
2024-05-09T00:12:26.436Z,51.64
2024-05-09T00:14:57.546Z,51.55
2024-05-09T00:17:27.739Z,51.89
2024-05-09T00:19:57.953Z,51.85
2024-05-09T00:22:28.049Z,52.31
2024-05-09T00:24:58.159Z,52.39
2024-05-09T00:27:30.916Z,51.36
2024-05-09T00:30:01.004Z,51.63
2024-05-09T00:32:31.128Z,52.21
2024-05-09T00:35:02.470Z,51.56
2024-05-09T00:37:32.605Z,51.98
2024-05-09T00:40:02.807Z,51.67
2024-05-09T00:42:35.522Z,51.52
2024-05-09T00:45:06.827Z,51.54
2024-05-09T00:47:37.003Z,51.51
2024-05-09T00:50:12.721Z,51.41
2024-05-09T00:52:47.409Z,51.34
2024-05-09T00:55:17.958Z,51.27
2024-05-09T00:57:50.730Z,51.50
2024-05-09T01:00:27.293Z,51.57
2024-05-09T01:03:05.929Z,51.01
2024-05-09T01:05:36.153Z,51.02
2024-05-09T01:08:06.539Z,50.92
2024-05-09T01:10:36.951Z,51.45
2024-05-09T01:13:09.910Z,51.68
2024-05-09T01:15:39.943Z,51.46
2024-05-09T01:18:11.665Z,51.12
2024-05-09T01:21:17.047Z,50.99
2024-05-09T01:23:49.865Z,51.09
2024-05-09T01:26:20.078Z,51.35
2024-05-09T01:28:50.207Z,51.28
2024-05-09T01:31:20.270Z,51.05
2024-05-09T01:33:50.452Z,51.00
2024-05-09T01:37:01.638Z,50.51
2024-05-09T01:39:34.492Z,50.82
2024-05-09T01:42:04.532Z,50.64
2024-05-09T01:44:34.681Z,50.83
2024-05-09T01:47:05.532Z,50.68
2024-05-09T01:49:40.139Z,51.11
2024-05-09T01:52:28.008Z,50.80
2024-05-09T01:55:04.519Z,50.42
2024-05-09T01:57:36.264Z,50.86
2024-05-09T02:00:07.935Z,50.92
2024-05-09T02:02:38.243Z,50.78
2024-05-09T02:05:09.178Z,50.77
2024-05-09T02:07:39.394Z,50.49
2024-05-09T02:10:20.138Z,50.89
2024-05-09T02:12:53.367Z,50.89
2024-05-09T02:15:23.439Z,50.21
2024-05-09T02:17:53.684Z,50.41
2024-05-09T02:20:33.060Z,50.75
2024-05-09T02:23:37.568Z,50.07
2024-05-09T02:26:10.516Z,50.25
2024-05-09T02:28:40.646Z,50.22
2024-05-09T02:31:10.696Z,50.37
2024-05-09T02:33:40.967Z,50.97
2024-05-09T02:36:12.692Z,49.97
2024-05-09T02:38:40.147Z,50.50
2024-05-09T02:41:12.990Z,50.39
2024-05-09T02:43:40.509Z,50.28
2024-05-09T02:46:10.604Z,50.70
2024-05-09T02:48:38.106Z,50.29
2024-05-09T02:51:08.716Z,50.25
2024-05-09T02:53:36.563Z,50.01
2024-05-09T02:56:07.094Z,49.92
2024-05-09T02:58:37.264Z,49.92
2024-05-09T03:01:07.665Z,50.29
2024-05-09T03:03:35.274Z,50.26
2024-05-09T03:06:05.471Z,50.13
2024-05-09T03:08:32.863Z,50.35
2024-05-09T03:11:03.005Z,50.00
2024-05-09T03:13:30.468Z,50.49
2024-05-09T03:16:05.428Z,50.20
2024-05-09T03:18:32.911Z,50.34
2024-05-09T03:21:03.215Z,49.77
2024-05-09T03:23:30.707Z,49.94
2024-05-09T03:26:01.020Z,49.79
2024-05-09T03:28:28.559Z,50.34
2024-05-09T03:30:58.671Z,50.27
2024-05-09T03:33:28.984Z,50.16
2024-05-09T03:36:00.937Z,49.97
2024-05-09T03:38:31.276Z,49.93
2024-05-09T03:40:59.096Z,49.44
2024-05-09T03:43:29.354Z,49.83
2024-05-09T03:45:57.903Z,50.09
2024-05-09T03:48:31.823Z,49.55
2024-05-09T03:51:00.435Z,49.62
2024-05-09T03:53:30.584Z,50.58
2024-05-09T03:55:59.076Z,49.49
2024-05-09T03:58:30.375Z,49.59
2024-05-09T04:00:59.283Z,49.58
2024-05-09T04:03:33.403Z,49.85
2024-05-09T04:06:02.092Z,49.98
2024-05-09T04:08:32.177Z,49.24
2024-05-09T04:11:00.784Z,49.23
2024-05-09T04:13:31.873Z,49.04
2024-05-09T04:15:59.308Z,49.41
2024-05-09T04:18:33.648Z,50.16
2024-05-09T04:21:03.280Z,49.44
2024-05-09T04:23:33.702Z,49.36
2024-05-09T04:26:04.587Z,49.61
2024-05-09T04:28:34.740Z,48.86
2024-05-09T04:31:02.124Z,49.66
2024-05-09T04:33:35.128Z,50.06
2024-05-09T04:36:02.685Z,49.71
2024-05-09T04:38:32.931Z,48.98
2024-05-09T04:41:00.488Z,49.22
2024-05-09T04:43:30.583Z,49.08
2024-05-09T04:45:57.972Z,49.52
2024-05-09T04:48:28.230Z,48.72
2024-05-09T04:50:58.433Z,48.61
2024-05-09T04:54:10.588Z,48.97
2024-05-09T04:56:38.241Z,49.31
2024-05-09T04:59:08.409Z,49.53
2024-05-09T05:01:35.941Z,49.74
2024-05-09T05:04:06.239Z,48.67
2024-05-09T05:06:36.418Z,49.08
2024-05-09T05:09:06.487Z,48.52
2024-05-09T05:11:33.947Z,49.09
2024-05-09T05:14:04.691Z,48.78
2024-05-09T05:16:32.146Z,48.88
2024-05-09T05:19:02.368Z,48.40
2024-05-09T05:21:29.864Z,48.89
2024-05-09T05:24:02.636Z,48.93
2024-05-09T05:26:30.123Z,48.12
2024-05-09T05:29:00.276Z,48.28
2024-05-09T05:31:27.791Z,47.69
2024-05-09T05:33:57.871Z,47.70
2024-05-09T05:36:25.399Z,47.65
2024-05-09T05:42:58.759Z,47.39
2024-05-09T05:45:26.237Z,47.60
2024-05-09T05:47:56.851Z,48.09
2024-05-09T05:50:32.265Z,47.86
2024-05-09T05:53:37.975Z,47.67
2024-05-09T05:56:06.006Z,47.53
2024-05-09T05:58:38.886Z,47.78
2024-05-09T06:01:06.320Z,47.16
2024-05-09T06:03:36.634Z,47.47
2024-05-09T06:06:04.505Z,47.11
2024-05-09T06:08:34.798Z,47.93
2024-05-09T06:11:03.209Z,47.81
2024-05-09T06:13:33.293Z,47.34
2024-05-09T06:16:05.024Z,47.69
2024-05-09T06:18:35.308Z,47.26
2024-05-09T06:21:02.977Z,47.29
2024-05-09T06:27:24.112Z,47.36
2024-05-09T06:29:51.523Z,47.07
2024-05-09T06:32:24.469Z,47.30
2024-05-09T06:34:52.104Z,47.08
2024-05-09T06:37:22.442Z,47.70
2024-05-09T06:39:49.873Z,47.73
2024-05-09T06:42:19.952Z,47.66
2024-05-09T06:44:47.375Z,47.57
2024-05-09T06:47:17.534Z,47.75
2024-05-09T06:49:50.576Z,47.39
2024-05-09T06:52:23.686Z,47.85
2024-05-09T06:55:10.968Z,47.10
2024-05-09T06:57:43.164Z,47.38
2024-05-09T07:00:15.664Z,47.17
2024-05-09T07:02:50.002Z,47.08
2024-05-09T07:05:20.377Z,47.13
2024-05-09T07:07:50.542Z,47.04
2024-05-09T07:10:25.425Z,47.18
2024-05-09T07:12:59.360Z,47.00
2024-05-09T07:15:26.788Z,47.46
2024-05-09T07:17:57.071Z,47.75
2024-05-09T07:20:34.013Z,47.77
2024-05-09T07:23:05.455Z,47.73
2024-05-09T07:25:32.933Z,47.77
2024-05-09T07:28:03.007Z,47.50
2024-05-09T07:30:33.671Z,47.60
2024-05-09T07:33:05.003Z,47.45
2024-05-09T07:35:35.461Z,47.40
2024-05-09T07:38:05.690Z,47.42
2024-05-09T07:40:36.407Z,47.43
2024-05-09T07:43:07.479Z,47.19
2024-05-09T07:53:37.995Z,47.02
2024-05-09T07:56:09.096Z,46.90
2024-05-09T07:58:37.241Z,47.11
2024-05-09T08:01:07.685Z,46.90
2024-05-09T08:03:35.413Z,48.19
2024-05-09T08:06:08.711Z,48.26
2024-05-09T08:08:36.104Z,47.94
2024-05-09T08:11:06.506Z,47.62
2024-05-09T08:13:34.444Z,47.65
2024-05-09T08:16:04.651Z,47.48
2024-05-09T08:18:32.344Z,47.42
2024-05-09T08:21:02.552Z,47.34
2024-05-09T08:27:27.565Z,47.30
2024-05-09T08:29:55.033Z,47.19
2024-05-09T08:32:27.451Z,47.10
2024-05-09T08:34:54.982Z,47.67
2024-05-09T08:37:29.446Z,47.79
2024-05-09T08:40:00.260Z,48.25
2024-05-09T08:42:37.955Z,48.78
2024-05-09T08:45:11.714Z,47.74
2024-05-09T08:47:45.525Z,47.70
2024-05-09T08:50:28.662Z,47.73
2024-05-09T08:53:11.969Z,47.40
2024-05-09T08:55:47.317Z,47.33
2024-05-09T08:58:22.922Z,47.25
2024-05-09T09:00:56.606Z,47.03
2024-05-09T09:03:28.911Z,47.33
2024-05-09T09:06:05.467Z,47.29
2024-05-09T09:08:38.302Z,47.76
2024-05-09T09:11:12.689Z,48.09
2024-05-09T09:13:47.761Z,47.78
2024-05-09T09:16:19.362Z,48.10
2024-05-09T09:18:48.304Z,47.65
2024-05-09T09:21:22.133Z,48.13
2024-05-09T09:24:50.920Z,47.78
2024-05-09T09:27:21.041Z,47.53
2024-05-09T09:29:57.423Z,47.86
2024-05-09T09:32:33.688Z,47.32
2024-05-09T09:35:05.073Z,46.82
2024-05-09T09:37:36.026Z,46.44
2024-05-09T09:40:07.120Z,46.46
2024-05-09T09:42:40.717Z,46.06
2024-05-09T09:45:12.162Z,46.26
2024-05-09T09:47:45.791Z,45.75
2024-05-09T09:50:20.367Z,46.46
2024-05-09T09:52:56.295Z,45.55
2024-05-09T09:55:26.650Z,45.94
2024-05-09T09:58:01.109Z,45.76
2024-05-09T10:00:33.797Z,45.93
2024-05-09T10:03:10.410Z,45.58
2024-05-09T10:05:40.466Z,45.04
2024-05-09T10:08:13.430Z,44.62
2024-05-09T10:11:23.689Z,44.99
2024-05-09T10:13:56.744Z,44.74
2024-05-09T10:16:30.815Z,44.44
2024-05-09T10:19:04.804Z,44.38
2024-05-09T10:21:32.633Z,44.61
2024-05-09T10:24:07.163Z,44.35
2024-05-09T10:30:17.663Z,44.60
2024-05-09T10:32:52.331Z,44.44
2024-05-09T10:35:22.750Z,44.75
2024-05-09T10:37:51.209Z,44.39
2024-05-09T10:40:40.330Z,43.58
2024-05-09T10:43:07.766Z,43.43
2024-05-09T10:45:38.945Z,43.79
2024-05-09T10:48:09.520Z,43.74
2024-05-09T10:50:43.804Z,43.28
2024-05-09T10:53:11.244Z,43.43
2024-05-09T10:56:35.864Z,43.42
2024-05-09T10:59:06.589Z,43.32
2024-05-09T11:01:34.126Z,43.47
2024-05-09T11:04:07.353Z,43.55
2024-05-09T11:06:38.168Z,43.55
2024-05-09T11:09:08.975Z,43.28
2024-05-09T11:11:36.409Z,43.35
2024-05-09T11:14:14.925Z,43.65
2024-05-09T11:16:42.343Z,43.42
2024-05-09T11:19:19.892Z,43.53
2024-05-09T11:21:51.645Z,43.55
2024-05-09T11:24:21.905Z,43.62
2024-05-09T11:26:49.316Z,43.62
2024-05-09T11:29:19.854Z,43.49
2024-05-09T11:31:47.621Z,43.77
2024-05-09T11:34:21.002Z,43.65
2024-05-09T11:36:48.534Z,43.81
2024-05-09T11:39:18.736Z,43.68
2024-05-09T11:41:58.405Z,43.72
2024-05-09T11:44:28.974Z,43.77
2024-05-09T11:46:56.419Z,43.83
2024-05-09T11:49:29.304Z,43.84
2024-05-09T11:51:56.838Z,43.95
2024-05-09T11:54:26.962Z,43.74
2024-05-09T11:56:55.003Z,43.86
2024-05-09T11:59:25.130Z,43.84
2024-05-09T12:01:52.673Z,43.95
2024-05-09T12:04:23.003Z,44.04
2024-05-09T12:06:53.215Z,43.84
2024-05-09T12:09:23.344Z,44.10
2024-05-09T12:11:50.820Z,44.14
2024-05-09T12:14:20.935Z,44.14
2024-05-09T12:16:48.381Z,43.99
2024-05-09T12:19:18.614Z,44.18
2024-05-09T12:21:46.173Z,44.37
2024-05-09T12:24:18.945Z,44.15
2024-05-09T12:26:46.365Z,44.08
2024-05-09T12:29:16.502Z,44.17
2024-05-09T12:31:44.089Z,44.19
2024-05-09T12:34:14.338Z,44.11
2024-05-09T12:36:41.966Z,44.44
2024-05-09T12:39:12.072Z,44.40
2024-05-09T12:41:42.129Z,44.33
2024-05-09T12:44:12.203Z,44.32
2024-05-09T12:46:39.611Z,44.16
2024-05-09T12:49:09.837Z,44.42
2024-05-09T12:51:37.391Z,44.47
2024-05-09T12:54:07.515Z,44.12
2024-05-09T12:56:34.945Z,44.32
2024-05-09T12:59:07.691Z,44.41
2024-05-09T13:01:35.325Z,44.31
2024-05-09T13:04:05.624Z,44.46
2024-05-09T13:06:33.209Z,44.22
2024-05-09T13:09:03.360Z,44.28
2024-05-09T13:11:30.829Z,44.14
2024-05-09T13:14:00.949Z,44.32
2024-05-09T13:16:31.739Z,44.35
2024-05-09T13:19:01.971Z,44.48
2024-05-09T13:21:29.500Z,44.37
2024-05-09T13:24:00.420Z,44.33
2024-05-09T13:26:27.963Z,44.32
2024-05-09T13:28:58.039Z,44.14
2024-05-09T13:31:25.454Z,44.02
2024-05-09T13:33:58.376Z,44.18
2024-05-09T13:36:25.810Z,44.00
2024-05-09T13:38:56.609Z,44.12
2024-05-09T13:41:24.184Z,44.09
2024-05-09T13:43:54.256Z,44.25
2024-05-09T13:46:22.068Z,44.22
2024-05-09T13:49:10.742Z,44.12
2024-05-09T13:51:45.019Z,44.10
2024-05-09T13:54:12.405Z,44.25
2024-05-09T13:56:42.436Z,43.92
2024-05-09T13:59:09.831Z,43.98
2024-05-09T14:01:40.012Z,44.17
2024-05-09T14:04:09.966Z,43.73
2024-05-09T14:06:40.349Z,43.99
2024-05-09T14:09:10.442Z,43.83
2024-05-09T14:11:40.567Z,43.93
2024-05-09T14:14:07.994Z,43.94
2024-05-09T14:16:38.177Z,44.04
2024-05-09T14:19:05.620Z,43.88
2024-05-09T14:21:35.749Z,43.55
2024-05-09T14:24:03.224Z,43.92
2024-05-09T14:26:35.983Z,43.78
2024-05-09T14:29:03.381Z,43.64
2024-05-09T14:31:35.467Z,43.75
2024-05-09T14:34:03.885Z,43.75
2024-05-09T14:36:34.553Z,43.60
2024-05-09T14:39:02.069Z,43.85
2024-05-09T14:41:32.136Z,43.80
2024-05-09T14:44:02.216Z,43.69
2024-05-09T14:46:32.400Z,43.87
2024-05-09T14:49:00.307Z,43.69
2024-05-09T14:51:30.545Z,43.68
2024-05-09T14:53:57.941Z,43.80
2024-05-09T14:56:28.007Z,43.62
2024-05-09T14:58:57.193Z,43.73
2024-05-09T15:01:30.060Z,43.63
2024-05-09T15:03:57.848Z,43.73
2024-05-09T15:06:28.025Z,43.55
2024-05-09T15:08:56.684Z,43.65
2024-05-09T15:11:30.328Z,43.68
2024-05-09T15:13:57.744Z,43.56
2024-05-09T15:16:31.170Z,43.45
2024-05-09T15:18:59.082Z,43.55
2024-05-09T15:21:29.305Z,43.42
2024-05-09T15:23:56.745Z,43.43
2024-05-09T15:26:26.799Z,43.40
2024-05-09T15:28:54.173Z,43.51
2024-05-09T15:31:24.300Z,43.31
2024-05-09T15:33:54.691Z,43.38
2024-05-09T15:36:24.872Z,43.40
2024-05-09T15:38:55.430Z,43.34
2024-05-09T15:41:25.534Z,43.27
2024-05-09T15:43:52.988Z,43.28
2024-05-09T15:46:23.301Z,43.33
2024-05-09T15:48:51.309Z,43.52
2024-05-09T15:51:24.197Z,43.34
2024-05-09T15:53:51.649Z,43.28
2024-05-09T15:56:21.745Z,43.30
2024-05-09T15:58:49.541Z,43.10
2024-05-09T16:01:19.791Z,43.34
2024-05-09T16:03:47.614Z,43.32
2024-05-09T16:06:17.899Z,43.24
2024-05-09T16:08:47.991Z,43.21
2024-05-09T16:11:20.202Z,43.19
2024-05-09T16:13:47.801Z,43.12
2024-05-09T16:16:17.973Z,43.37
2024-05-09T16:18:45.523Z,43.07
2024-05-09T16:21:15.691Z,43.18
2024-05-09T16:23:43.065Z,43.36
2024-05-09T16:26:15.828Z,43.08
2024-05-09T16:28:43.244Z,43.31
2024-05-09T16:31:13.430Z,43.27
2024-05-09T16:33:41.146Z,43.24
2024-05-09T16:36:11.479Z,43.44
2024-05-09T16:38:40.089Z,43.11
2024-05-09T16:41:19.816Z,43.28
2024-05-09T16:43:47.240Z,43.08
2024-05-09T16:46:17.766Z,43.37
2024-05-09T16:48:46.465Z,43.33
2024-05-09T16:51:16.593Z,43.39
2024-05-09T16:53:44.002Z,43.30
2024-05-09T16:56:14.112Z,43.10
2024-05-09T16:58:44.213Z,43.05
2024-05-09T17:01:15.087Z,43.22
2024-05-09T17:03:42.951Z,43.14
2024-05-09T17:06:13.400Z,43.19
2024-05-09T17:08:41.736Z,43.13
2024-05-09T17:11:15.617Z,43.25
2024-05-09T17:13:48.470Z,43.23
2024-05-09T17:16:19.140Z,43.28
2024-05-09T17:18:50.545Z,43.24
2024-05-09T17:21:18.250Z,43.19
2024-05-09T17:23:49.506Z,43.33
2024-05-09T17:26:16.932Z,43.12
2024-05-09T17:28:49.671Z,43.21
2024-05-09T17:31:19.764Z,42.90
2024-05-09T17:33:47.389Z,42.93
2024-05-09T17:36:17.643Z,43.05
2024-05-09T17:38:45.385Z,43.20
2024-05-09T17:41:15.432Z,43.14
2024-05-09T17:43:42.827Z,43.18
2024-05-09T17:46:15.639Z,43.00
2024-05-09T17:48:43.148Z,43.05
2024-05-09T17:51:13.609Z,43.08
2024-05-09T17:53:41.866Z,43.16
2024-05-09T17:56:11.949Z,43.13
2024-05-09T17:58:39.372Z,42.93
2024-05-09T18:01:09.600Z,42.95
2024-05-09T18:03:40.064Z,42.87
2024-05-09T18:06:11.377Z,42.88
2024-05-09T18:08:38.920Z,43.01
2024-05-09T18:11:09.703Z,43.00
2024-05-09T18:13:37.247Z,42.87
2024-05-09T18:16:07.715Z,43.20
2024-05-09T18:18:35.445Z,42.93
2024-05-09T18:21:08.488Z,42.93
2024-05-09T18:23:35.924Z,43.09
2024-05-09T18:26:05.982Z,42.86
2024-05-09T18:28:33.462Z,43.01
2024-05-09T18:31:03.615Z,42.86
2024-05-09T18:33:31.099Z,42.75
2024-05-09T18:36:01.232Z,42.85
2024-05-09T18:38:31.285Z,43.02
2024-05-09T18:41:01.452Z,42.84
2024-05-09T18:43:38.007Z,42.70
2024-05-09T18:46:12.342Z,42.71
2024-05-09T18:48:40.014Z,42.51
2024-05-09T18:51:10.375Z,42.52
2024-05-09T18:53:41.701Z,42.39
2024-05-09T18:56:12.869Z,42.52
2024-05-09T18:58:40.279Z,42.29
2024-05-09T19:01:10.485Z,42.38
2024-05-09T19:03:38.826Z,42.55
2024-05-09T19:06:09.152Z,42.04
2024-05-09T19:08:36.554Z,42.30
2024-05-09T19:11:09.354Z,42.16
2024-05-09T19:13:36.805Z,42.29
2024-05-09T19:16:07.312Z,42.18
2024-05-09T19:18:35.097Z,42.03
2024-05-09T19:21:05.216Z,42.01
2024-05-09T19:23:35.479Z,42.05
2024-05-09T19:26:10.939Z,42.54
2024-05-09T19:28:38.354Z,42.21
2024-05-09T19:31:08.663Z,42.38
2024-05-09T19:33:37.022Z,42.25
2024-05-09T19:36:07.881Z,42.35
2024-05-09T19:38:35.296Z,42.10
2024-05-09T19:41:05.411Z,41.96
2024-05-09T19:43:36.226Z,41.80
2024-05-09T19:46:06.552Z,41.92
2024-05-09T19:48:34.144Z,41.87
2024-05-09T19:51:04.389Z,41.83
2024-05-09T19:53:31.843Z,42.10
2024-05-09T19:56:08.235Z,41.96
2024-05-09T19:58:38.369Z,41.81
2024-05-09T20:01:08.630Z,41.88
2024-05-09T20:03:37.465Z,42.10
2024-05-09T20:06:07.928Z,41.95
2024-05-09T20:08:35.814Z,41.86
2024-05-09T20:11:05.979Z,42.29
2024-05-09T20:13:33.435Z,42.18
2024-05-09T20:16:06.874Z,42.32
2024-05-09T20:18:34.848Z,42.18
2024-05-09T20:21:06.547Z,42.06
2024-05-09T20:23:36.964Z,41.85
2024-05-09T20:26:04.672Z,42.20
2024-05-09T20:28:34.803Z,41.86
2024-05-09T20:31:06.351Z,41.85
2024-05-09T20:33:37.977Z,42.08
2024-05-09T20:36:06.520Z,41.82
2024-05-09T20:38:36.613Z,41.82
2024-05-09T20:41:04.501Z,41.98
2024-05-09T20:43:34.690Z,41.78
2024-05-09T20:46:05.070Z,41.80
2024-05-09T20:48:35.453Z,41.67
2024-05-09T20:51:04.593Z,41.90
2024-05-09T20:53:34.679Z,41.72
2024-05-09T20:56:02.120Z,42.18
2024-05-09T20:58:32.606Z,42.02
2024-05-09T21:01:00.108Z,42.13
2024-05-09T21:03:40.008Z,42.10
2024-05-09T21:06:07.501Z,42.13
2024-05-09T21:08:37.589Z,42.11
2024-05-09T21:11:05.301Z,42.20
2024-05-09T21:13:35.764Z,42.16
2024-05-09T21:16:03.262Z,42.12
2024-05-09T21:18:36.303Z,42.21
2024-05-09T21:21:03.905Z,42.27
2024-05-09T21:23:34.047Z,41.93
2024-05-09T21:26:01.466Z,42.21
2024-05-09T21:28:31.610Z,42.08
2024-05-09T21:30:59.095Z,42.06
2024-05-09T21:33:29.350Z,42.19
2024-05-09T21:35:59.467Z,42.10
2024-05-09T21:38:29.627Z,42.03
2024-05-09T21:40:57.086Z,42.05
2024-05-09T21:43:28.762Z,42.21
2024-05-09T21:46:00.499Z,42.03
2024-05-09T21:48:30.659Z,42.15
2024-05-09T21:51:00.748Z,42.23
2024-05-09T21:53:30.812Z,42.34
2024-05-09T21:55:58.196Z,42.31
2024-05-09T21:58:28.931Z,42.30
2024-05-09T22:00:56.459Z,42.35
2024-05-09T22:03:26.894Z,42.09
2024-05-09T22:05:54.478Z,42.42
2024-05-09T22:08:27.239Z,42.39
2024-05-09T22:10:54.788Z,42.40
2024-05-09T22:13:28.851Z,42.84
2024-05-09T22:15:56.364Z,42.22
2024-05-09T22:18:26.499Z,42.51
2024-05-09T22:20:55.274Z,42.31
2024-05-09T22:23:28.099Z,42.24
2024-05-09T22:25:55.487Z,42.17
2024-05-09T22:28:26.080Z,42.37
2024-05-09T22:30:55.527Z,42.24
2024-05-09T22:33:25.759Z,42.29
2024-05-09T22:35:53.234Z,42.24
2024-05-09T22:38:23.379Z,42.07
2024-05-09T22:40:53.500Z,42.06
2024-05-09T22:43:25.061Z,42.24
2024-05-09T22:45:53.878Z,42.13
2024-05-09T22:48:25.021Z,42.00
2024-05-09T22:50:53.043Z,41.99
2024-05-09T22:53:24.586Z,42.29
2024-05-09T22:55:54.803Z,42.27
2024-05-09T22:58:25.836Z,42.25
2024-05-09T23:00:53.646Z,42.08
2024-05-09T23:03:23.963Z,42.36
2024-05-09T23:05:51.501Z,42.11
2024-05-09T23:08:21.580Z,42.45
2024-05-09T23:10:49.074Z,42.28
2024-05-09T23:13:22.257Z,42.33
2024-05-09T23:15:49.795Z,42.26
2024-05-09T23:18:20.073Z,42.39
2024-05-09T23:20:47.627Z,42.30
2024-05-09T23:23:17.720Z,42.25
2024-05-09T23:25:45.137Z,41.99
2024-05-09T23:28:15.264Z,42.05
2024-05-09T23:30:45.358Z,42.01
2024-05-09T23:33:15.644Z,42.18
2024-05-09T23:35:44.180Z,41.96
2024-05-09T23:38:14.657Z,42.15
2024-05-09T23:40:43.051Z,41.96
2024-05-09T23:43:14.018Z,42.12
2024-05-09T23:45:42.131Z,42.03
2024-05-09T23:48:15.253Z,42.13
2024-05-09T23:50:42.753Z,42.13
2024-05-09T23:53:14.454Z,42.08
2024-05-09T23:55:41.918Z,42.24
2024-05-09T23:58:18.057Z,42.30
